Isle Royale National Park, MI

3:26 AM EDT op 28 augustus 2015 (GMT -0400)
Shopko Heights | | Change Station
CLOSE
Current Station
Persoonlijk weerstation
Location: Houghton, MI
Geometrische hoogte: 910 ft
Nabije weerstations

Hoogte 910 ft 47.12 °N, 88.59 °W | Updated 6 seconds ago

Helder
Helder
57.0 °F
Voelt als 57.0 °F
N
4.4
Wind Variabel Wind van ZO
Gusts 6.0 mijl/u

Vandaag
Hoog -- | Laag -- °F
--% Kans op neerslag
Gisteren
Hoog -- | Laag -- °F
Precip. -- inches
7:07 AM 8:42 PM
Wassende maan, 97% visible
Druk 29.99 inches
Zicht 10.0 mijlen
Wolken Helder
Dauwpunt 53 °F
Vochtigheid 87%
Neerslag 0.00 inches
Dikte sneeuw Niet beschikbaar.
UV 0 van de 12
Pollen 9.40 van de 12
Luchtkwaliteit Niet beschikbaar.
Flu Activity Niet beschikbaar.
METAR KCMX 280653Z AUTO 00000KT 10SM CLR 12/11 A2999 RMK AO2 SLP156 T01170106 TSNO
Druk 29.99 inches
Zicht 10.0 mijlen
Wolken Helder
Dauwpunt 53 °F
Vochtigheid 87%
Neerslag 0.00 inches
Dikte sneeuw Niet beschikbaar.
UV 0 van de 12
Pollen 9.40 van de 12
Luchtkwaliteit Niet beschikbaar.
Flu Activity Niet beschikbaar.
METAR KCMX 280653Z AUTO 00000KT 10SM CLR 12/11 A2999 RMK AO2 SLP156 T01170106 TSNO

10-Day Weather Forecast

×

Almanac

Astronomie

Aug. 28, 2015 Opkomst Ondergang
Werkelijke tijd
Burgerlijke schemering
Nautische schemering
Astronomische schemering
Maan
Golflengte van het zichtbare licht
Daglengte
Tomorrow will be .
, % of the Moon is Illuminated

Extremen vandaag

State Highs State Lows

Community

WunderPhotos

Upload Photos

1,850,344 foto’s ge-upload!

WunderBlogs® & News

Nearby

Luchtkwaliteit

  Luchtkwaliteit LK-index Verontreinigende stof
Not available.

Dikte sneeuw

Station Depth Geometrische hoogte

Aardbevingen

Stad Distance Mag. Time & Date
Minimum magnitude displayed is 2.5.

Watertemperatuur langs de kust

Plaats Temperatuur

Stations

Nabije weerstations

Locatie station Temp. Gevoelstemperatuur Dauwpunt Vochtigheid Wind Precip. Hoogte Geactualiseerd Type